createdAt,value
2023-01-31T00:00:32.665Z,86.88
2023-01-31T00:05:56.568Z,86.19
2023-01-31T00:11:01.432Z,85.69
2023-01-31T00:16:05.879Z,85.36
2023-01-31T00:21:15.235Z,85.25
2023-01-31T00:26:21.857Z,84.86
2023-01-31T00:31:31.467Z,84.62
2023-01-31T00:36:37.607Z,84.35
2023-01-31T00:41:45.517Z,84.42
2023-01-31T00:46:51.890Z,83.78
2023-01-31T00:51:58.773Z,83.56
2023-01-31T00:57:02.912Z,83.80
2023-01-31T01:02:08.212Z,84.41
2023-01-31T01:07:12.282Z,84.38
2023-01-31T01:12:16.084Z,83.83
2023-01-31T01:17:19.949Z,83.04
2023-01-31T01:22:26.501Z,82.43
2023-01-31T01:27:31.802Z,81.22
2023-01-31T01:32:35.579Z,79.62
2023-01-31T01:37:39.444Z,78.99
2023-01-31T01:42:43.635Z,78.65
2023-01-31T01:47:51.597Z,78.95
2023-01-31T01:53:17.424Z,78.26
2023-01-31T01:59:03.098Z,78.24
2023-01-31T02:04:09.844Z,78.10
2023-01-31T02:09:22.909Z,77.89
2023-01-31T02:14:27.490Z,77.58
2023-01-31T02:19:46.197Z,77.57
2023-01-31T02:25:04.411Z,77.32
2023-01-31T02:30:20.127Z,77.59
2023-01-31T02:35:47.256Z,79.61
2023-01-31T02:41:19.720Z,81.31
2023-01-31T02:46:33.287Z,82.78
2023-01-31T02:51:42.345Z,84.03
2023-01-31T02:56:47.098Z,84.70
2023-01-31T03:02:00.300Z,84.59
2023-01-31T03:07:11.188Z,84.33
2023-01-31T03:13:11.220Z,83.63
2023-01-31T03:18:20.398Z,82.70
2023-01-31T03:23:30.096Z,81.92
2023-01-31T03:28:41.477Z,81.25
2023-01-31T03:33:49.302Z,81.65
2023-01-31T03:39:43.767Z,82.87
2023-01-31T03:45:39.111Z,84.62
2023-01-31T03:50:50.419Z,86.20
2023-01-31T03:56:18.012Z,85.31
2023-01-31T04:01:26.643Z,85.07
2023-01-31T04:06:30.762Z,85.23
2023-01-31T04:11:40.626Z,84.43
2023-01-31T04:16:44.589Z,82.87
2023-01-31T04:21:48.342Z,81.34
2023-01-31T04:26:52.076Z,80.26
2023-01-31T04:31:56.585Z,79.54
2023-01-31T04:37:00.657Z,78.22
2023-01-31T04:42:04.369Z,77.88
2023-01-31T04:47:09.018Z,77.04
2023-01-31T04:52:12.833Z,76.79
2023-01-31T04:57:16.869Z,76.88
2023-01-31T05:02:23.569Z,76.26
2023-01-31T05:07:27.751Z,76.80
2023-01-31T05:12:34.109Z,76.37
2023-01-31T05:17:38.240Z,75.55
2023-01-31T05:22:41.994Z,75.53
2023-01-31T05:27:45.737Z,75.41
2023-01-31T05:32:50.306Z,75.00
2023-01-31T05:37:55.249Z,75.13
2023-01-31T05:43:04.406Z,75.17
2023-01-31T05:48:08.437Z,75.81
2023-01-31T05:53:12.241Z,75.99
2023-01-31T05:58:16.597Z,76.55
2023-01-31T06:03:20.309Z,76.64
2023-01-31T06:08:24.217Z,76.23
2023-01-31T06:13:27.977Z,75.09
2023-01-31T06:18:31.958Z,73.84
2023-01-31T06:23:36.179Z,72.63
2023-01-31T06:28:40.188Z,71.25
2023-01-31T06:33:47.306Z,70.70
2023-01-31T06:38:53.013Z,69.99
2023-01-31T06:43:57.582Z,69.94
2023-01-31T06:49:01.790Z,69.93
2023-01-31T06:54:05.537Z,70.76
2023-01-31T06:59:10.328Z,71.92
2023-01-31T07:04:14.766Z,72.83
2023-01-31T07:09:18.923Z,73.51
2023-01-31T07:14:22.861Z,74.07
2023-01-31T07:19:27.182Z,74.41
2023-01-31T07:24:31.184Z,74.96
2023-01-31T07:29:38.173Z,75.38
2023-01-31T07:34:42.700Z,75.55
2023-01-31T07:39:46.420Z,75.66
2023-01-31T07:44:50.335Z,76.08
2023-01-31T07:49:54.057Z,76.35
2023-01-31T07:54:57.968Z,76.34
2023-01-31T08:00:01.749Z,76.09
2023-01-31T08:05:15.235Z,76.28
2023-01-31T08:10:20.226Z,75.56
2023-01-31T08:15:24.018Z,74.20
2023-01-31T08:20:27.891Z,71.67
2023-01-31T08:25:32.192Z,72.10
2023-01-31T08:30:40.764Z,71.73
2023-01-31T08:35:44.537Z,71.47
2023-01-31T08:40:48.527Z,73.00
2023-01-31T08:45:52.306Z,74.44
2023-01-31T08:50:56.097Z,74.62
2023-01-31T08:56:02.048Z,74.87
2023-01-31T09:01:14.349Z,74.97
2023-01-31T09:06:22.304Z,74.75
2023-01-31T09:11:30.795Z,74.88
2023-01-31T09:16:34.690Z,74.34
2023-01-31T09:21:38.676Z,73.18
2023-01-31T09:26:42.454Z,72.95
2023-01-31T09:31:47.446Z,73.21
2023-01-31T09:36:51.355Z,74.26
2023-01-31T09:42:03.683Z,74.36
2023-01-31T09:47:20.652Z,73.96
2023-01-31T09:52:24.573Z,73.84
2023-01-31T09:57:50.932Z,74.10
2023-01-31T10:03:13.053Z,74.72
2023-01-31T10:08:48.245Z,74.71
2023-01-31T10:14:18.042Z,74.00
2023-01-31T10:20:14.476Z,75.92
2023-01-31T10:26:09.556Z,76.64
2023-01-31T10:31:29.221Z,77.92
2023-01-31T10:36:56.190Z,77.59
2023-01-31T10:42:26.005Z,77.87
2023-01-31T10:47:42.063Z,79.68
2023-01-31T10:53:04.426Z,79.78
2023-01-31T10:58:16.745Z,77.98
2023-01-31T11:03:20.461Z,77.63
2023-01-31T11:08:51.468Z,77.97
2023-01-31T11:14:03.972Z,77.51
2023-01-31T11:19:17.388Z,77.93
2023-01-31T11:24:23.944Z,76.25
2023-01-31T11:29:40.219Z,77.43
2023-01-31T11:34:57.279Z,77.03
2023-01-31T11:40:05.073Z,77.29
2023-01-31T11:45:24.194Z,77.79
2023-01-31T11:50:40.687Z,78.06
2023-01-31T11:55:48.587Z,77.36
2023-01-31T12:01:03.308Z,77.26
2023-01-31T12:06:09.872Z,77.16
2023-01-31T12:11:42.172Z,78.17
2023-01-31T12:16:47.775Z,79.53
2023-01-31T12:22:17.095Z,80.17
2023-01-31T12:28:13.331Z,81.53
2023-01-31T12:33:46.338Z,82.84
2023-01-31T12:51:30.267Z,82.95
2023-01-31T13:02:59.289Z,82.16
2023-01-31T13:08:18.523Z,82.13
2023-01-31T13:13:30.178Z,82.26
2023-01-31T13:18:35.881Z,82.49
2023-01-31T13:23:49.563Z,83.37
2023-01-31T13:29:01.279Z,83.50
2023-01-31T13:34:30.013Z,83.82
2023-01-31T13:39:39.908Z,83.68
2023-01-31T13:44:45.451Z,83.30
2023-01-31T13:50:02.343Z,83.30
2023-01-31T13:55:24.415Z,83.46
2023-01-31T14:00:41.971Z,83.36
2023-01-31T14:06:00.154Z,83.57
2023-01-31T14:11:26.911Z,84.09
2023-01-31T14:16:44.529Z,84.07
2023-01-31T14:22:20.766Z,84.26
2023-01-31T14:27:54.958Z,84.27
2023-01-31T14:33:12.899Z,84.89
2023-01-31T14:38:49.464Z,85.14
2023-01-31T14:44:15.248Z,85.88
2023-01-31T14:49:59.519Z,86.00
2023-01-31T15:01:24.352Z,86.87
2023-01-31T15:06:54.397Z,87.19
2023-01-31T15:18:22.483Z,87.56
2023-01-31T15:23:29.360Z,87.77
2023-01-31T15:28:40.652Z,87.93
2023-01-31T15:33:48.866Z,88.06
2023-01-31T15:38:59.059Z,88.27
2023-01-31T15:44:18.174Z,88.43
2023-01-31T15:49:40.367Z,88.44
2023-01-31T15:55:19.136Z,88.52
2023-01-31T16:00:40.292Z,88.67
2023-01-31T16:05:52.518Z,88.51
2023-01-31T16:11:08.791Z,88.46
2023-01-31T16:16:14.752Z,88.60
2023-01-31T16:21:52.158Z,88.81
2023-01-31T16:27:14.228Z,88.74
2023-01-31T16:32:29.618Z,88.71
2023-01-31T16:37:40.747Z,88.74
2023-01-31T16:42:46.230Z,88.60
2023-01-31T16:47:54.028Z,88.59
2023-01-31T16:53:15.299Z,88.56
2023-01-31T16:59:08.988Z,88.53
2023-01-31T17:04:34.354Z,88.85
2023-01-31T17:09:39.654Z,88.63
2023-01-31T17:14:44.831Z,88.68
2023-01-31T17:19:49.270Z,88.75
2023-01-31T17:25:18.872Z,89.18
2023-01-31T17:30:53.860Z,89.30
2023-01-31T17:36:22.164Z,89.65
2023-01-31T17:41:37.555Z,89.62
2023-01-31T17:46:45.120Z,89.46
2023-01-31T17:52:05.462Z,89.40
2023-01-31T17:57:34.524Z,89.03
2023-01-31T18:03:47.286Z,88.60
2023-01-31T18:09:19.496Z,88.21
2023-01-31T18:14:25.519Z,88.12
2023-01-31T18:19:45.635Z,87.87
2023-01-31T18:24:51.068Z,87.92
2023-01-31T18:30:01.053Z,87.99
2023-01-31T18:35:11.660Z,87.88
2023-01-31T18:40:20.334Z,87.62
2023-01-31T18:45:26.516Z,87.54
2023-01-31T18:50:33.008Z,87.47
2023-01-31T18:55:38.386Z,87.27
2023-01-31T19:00:45.768Z,87.25
2023-01-31T19:05:51.088Z,87.00
2023-01-31T19:10:57.158Z,86.90
2023-01-31T19:16:09.194Z,87.11
2023-01-31T19:21:17.984Z,87.33
2023-01-31T19:26:29.860Z,87.31
2023-01-31T19:31:38.102Z,87.19
2023-01-31T19:36:47.452Z,87.23
2023-01-31T19:42:00.590Z,87.25
2023-01-31T19:47:09.236Z,87.21
2023-01-31T19:52:17.203Z,87.07
2023-01-31T19:57:24.139Z,87.10
2023-01-31T20:02:32.588Z,87.14
2023-01-31T20:07:45.806Z,87.19
2023-01-31T20:12:51.191Z,87.05
2023-01-31T20:17:58.047Z,86.97
2023-01-31T20:23:09.416Z,87.02
2023-01-31T20:28:14.827Z,86.92
2023-01-31T20:33:22.641Z,86.97
2023-01-31T20:38:27.972Z,86.99
2023-01-31T20:43:36.626Z,86.86
2023-01-31T20:48:46.202Z,86.58
2023-01-31T20:53:56.537Z,86.57
2023-01-31T20:59:10.601Z,86.55
2023-01-31T21:04:20.658Z,86.43
2023-01-31T21:09:28.734Z,86.28
2023-01-31T21:14:38.054Z,86.28
2023-01-31T21:19:43.315Z,86.09
2023-01-31T21:24:47.460Z,85.99
2023-01-31T21:29:51.916Z,85.99
2023-01-31T21:34:56.304Z,85.97
2023-01-31T21:40:00.334Z,86.00
2023-01-31T21:45:04.941Z,86.00
2023-01-31T21:50:11.796Z,86.09
2023-01-31T21:55:17.249Z,85.93
2023-01-31T22:00:21.628Z,85.55
2023-01-31T22:05:25.736Z,85.09
2023-01-31T22:10:30.126Z,85.19
2023-01-31T22:15:35.774Z,85.26
2023-01-31T22:20:39.789Z,85.39
2023-01-31T22:25:43.688Z,85.42
2023-01-31T22:30:56.141Z,85.16
2023-01-31T22:36:00.596Z,84.14
2023-01-31T22:41:07.366Z,84.05
2023-01-31T22:46:17.671Z,83.57
2023-01-31T22:51:29.544Z,83.28
2023-01-31T22:56:39.030Z,83.85
2023-01-31T23:01:53.347Z,85.04
2023-01-31T23:07:04.612Z,87.78
2023-01-31T23:12:12.741Z,89.47
2023-01-31T23:17:42.710Z,90.20
2023-01-31T23:22:57.192Z,91.14
2023-01-31T23:28:03.365Z,91.51
2023-01-31T23:33:07.158Z,91.67
2023-01-31T23:38:11.473Z,91.88
2023-01-31T23:43:15.153Z,92.07
2023-01-31T23:48:19.797Z,92.11
2023-01-31T23:53:23.536Z,92.17
2023-01-31T23:58:27.262Z,92.03
